Time;durP1;ratioP1;P1;durP2;ratioP2;P2;SDS_P1;SDS_P2;PMS_P1;PMS_P2;Temp;Humidity;BMP_temperature;BMP_pressure;BME280_temperature;BME280_humidity;BME280_pressure;Samples;Min_cycle;Max_cycle;Signal;HPM_P1;HPM_P2
2022/11/02 00:00:21;;;;;;;8.10;1.23;;;;;;;12.34;86.98;101305.28;6210741;23;20012;-83
2022/11/02 00:02:48;;;;;;;10.80;1.57;;;;;;;12.35;87.20;101296.16;6183804;23;20319;-83
2022/11/02 00:05:13;;;;;;;14.90;1.90;;;;;;;12.39;86.89;101297.28;6183899;23;20009;-83
2022/11/02 00:07:40;;;;;;;9.50;2.22;;;;;;;12.46;86.57;101293.56;6211728;23;20004;-83
2022/11/02 00:10:06;;;;;;;13.47;1.50;;;;;;;12.48;86.36;101288.75;6211394;23;20012;-83
2022/11/02 00:12:32;;;;;;;13.80;1.97;;;;;;;12.55;85.44;101305.44;6185827;23;20292;-83
2022/11/02 00:14:57;;;;;;;9.02;1.40;;;;;;;12.53;85.27;101294.94;6212424;23;20487;-83
2022/11/02 00:17:24;;;;;;;13.10;1.90;;;;;;;12.49;85.61;101301.91;6212447;23;20012;-82
2022/11/02 00:19:50;;;;;;;8.23;1.13;;;;;;;12.42;85.98;101304.00;6184306;23;20012;-82
2022/11/02 00:22:15;;;;;;;13.30;1.33;;;;;;;12.42;85.66;101302.13;6212894;23;20004;-82
2022/11/02 00:24:41;;;;;;;12.13;1.60;;;;;;;12.44;85.98;101309.13;6212064;23;20073;-83
2022/11/02 00:27:06;;;;;;;14.38;1.73;;;;;;;12.40;85.79;101306.16;6211843;23;20007;-82
2022/11/02 00:29:33;;;;;;;5.97;1.30;;;;;;;12.32;85.75;101307.44;6212812;23;20004;-83
2022/11/02 00:31:59;;;;;;;8.73;1.35;;;;;;;12.26;86.27;101298.50;6212106;23;20011;-83
2022/11/02 00:34:24;;;;;;;11.23;1.63;;;;;;;12.35;85.94;101312.28;6211563;23;20328;-82
2022/11/02 00:36:49;;;;;;;6.83;1.07;;;;;;;12.38;85.66;101311.78;6211622;23;20014;-83
2022/11/02 00:39:16;;;;;;;7.20;1.30;;;;;;;12.41;84.89;101300.50;6212111;23;20012;-83
2022/11/02 00:41:42;;;;;;;15.02;1.73;;;;;;;12.39;85.04;101302.66;6212399;23;20012;-82
2022/11/02 00:44:07;;;;;;;10.70;1.50;;;;;;;12.36;85.21;101313.91;6212033;23;20000;-82
2022/11/02 00:46:32;;;;;;;7.03;1.17;;;;;;;12.23;85.71;101304.41;6212200;23;20454;-82
2022/11/02 00:48:57;;;;;;;7.73;1.13;;;;;;;12.27;85.37;101310.88;6212483;23;20008;-80
2022/11/02 00:51:23;;;;;;;6.40;1.10;;;;;;;12.31;84.63;101310.38;6211774;23;20008;-81
2022/11/02 00:53:48;;;;;;;10.37;1.20;;;;;;;12.37;83.26;101317.41;6212394;23;20004;-80
2022/11/02 00:56:13;;;;;;;5.70;1.30;;;;;;;12.33;83.18;101327.06;6211754;23;20024;-80
2022/11/02 00:58:38;;;;;;;7.13;1.40;;;;;;;12.22;83.02;101318.09;6211012;23;20013;-80
2022/11/02 01:01:05;;;;;;;8.20;1.10;;;;;;;12.10;83.19;101320.97;6211779;23;20028;-81
2022/11/02 01:03:30;;;;;;;8.20;1.10;;;;;;;11.89;84.50;101303.84;6182418;23;20281;-80
2022/11/02 01:05:56;;;;;;;7.13;1.27;;;;;;;11.85;85.41;101322.34;6180917;23;20549;-81
2022/11/02 01:08:21;;;;;;;11.47;1.00;;;;;;;11.74;85.85;101320.59;6182253;23;20055;-80
2022/11/02 01:10:47;;;;;;;8.23;1.40;;;;;;;11.65;87.73;101331.81;6181350;23;20039;-80
2022/11/02 01:13:12;;;;;;;8.00;1.38;;;;;;;11.59;88.30;101324.75;6182052;23;20486;-80
2022/11/02 01:15:37;;;;;;;14.83;1.30;;;;;;;11.54;88.25;101340.00;6181895;23;20363;-81
2022/11/02 01:18:03;;;;;;;7.50;1.20;;;;;;;11.41;88.87;101330.44;6181031;23;20012;-80
2022/11/02 01:20:28;;;;;;;3.90;1.00;;;;;;;11.40;88.58;101339.56;6181563;23;20417;-80
2022/11/02 01:22:53;;;;;;;9.27;1.20;;;;;;;11.41;87.64;101341.19;6181795;23;20480;-80
2022/11/02 01:25:18;;;;;;;10.30;1.23;;;;;;;11.43;87.17;101334.50;6181560;23;20009;-80
2022/11/02 01:27:44;;;;;;;11.88;1.20;;;;;;;11.43;86.15;101344.44;6181319;23;20426;-80
2022/11/02 01:30:10;;;;;;;7.73;1.23;;;;;;;11.41;85.94;101352.72;6181270;23;20016;-81
2022/11/02 01:32:35;;;;;;;11.02;1.25;;;;;;;11.35;86.37;101348.38;6182093;23;20001;-80
2022/11/02 01:35:01;;;;;;;6.03;1.17;;;;;;;11.33;86.25;101355.84;6181399;23;20016;-80
2022/11/02 01:37:26;;;;;;;5.67;1.40;;;;;;;11.29;85.69;101349.34;6181897;23;20105;-80
2022/11/02 01:39:52;;;;;;;7.43;1.20;;;;;;;11.27;85.28;101349.63;6181147;23;20272;-80
2022/11/02 01:42:19;;;;;;;5.60;1.57;;;;;;;11.20;85.37;101346.31;6154959;23;20041;-80
2022/11/02 01:44:45;;;;;;;8.52;1.30;;;;;;;11.20;85.30;101340.94;6181850;23;20009;-80
2022/11/02 01:47:25;;;;;;;10.47;1.20;;;;;;;11.14;85.03;101337.38;6180470;23;20448;-80
2022/11/02 01:50:03;;;;;;;6.35;0.98;;;;;;;11.14;85.45;101349.97;6181292;23;20005;-81
2022/11/02 01:52:34;;;;;;;9.88;1.17;;;;;;;11.13;85.05;101353.75;6180820;23;20333;-81
2022/11/02 01:55:11;;;;;;;9.53;0.97;;;;;;;11.15;85.60;101359.63;6180792;23;20055;-81
2022/11/02 01:57:38;;;;;;;7.03;1.30;;;;;;;11.11;85.51;101369.25;6181460;23;20257;-80
2022/11/02 02:00:09;;;;;;;6.97;1.20;;;;;;;11.12;85.22;101354.81;6180535;23;20013;-80
2022/11/02 02:02:42;;;;;;;9.05;1.20;;;;;;;11.21;85.18;101366.69;6200392;23;20436;-80
2022/11/02 02:05:09;;;;;;;7.25;1.30;;;;;;;11.34;84.60;101366.31;6210979;23;20005;-80
2022/11/02 02:07:37;;;;;;;9.73;0.90;;;;;;;11.43;84.83;101360.53;6210930;23;20012;-80
2022/11/02 02:10:04;;;;;;;4.22;1.20;;;;;;;11.49;84.46;101381.00;6210630;23;20007;-80
2022/11/02 02:12:31;;;;;;;10.60;1.27;;;;;;;11.59;83.93;101373.06;6211587;23;20091;-80
2022/11/02 02:14:59;;;;;;;8.52;1.10;;;;;;;11.56;84.02;101364.72;6210039;23;20524;-80
2022/11/02 02:17:54;;;;;;;6.70;0.90;;;;;;;11.48;84.40;101363.28;6211507;23;20001;-80
2022/11/02 02:21:11;;;;;;;6.77;1.07;;;;;;;11.32;84.84;101359.59;6210941;23;20000;-80
2022/11/02 02:24:07;;;;;;;4.53;1.27;;;;;;;11.12;86.24;101363.63;6177276;23;20536;-82
2022/11/02 02:26:54;;;;;;;6.85;1.10;;;;;;;11.04;86.94;101380.19;6211597;23;20026;-81
2022/11/02 02:29:23;;;;;;;12.00;1.52;;;;;;;10.99;87.14;101375.53;6211336;23;20486;-82
2022/11/02 02:32:00;;;;;;;8.85;1.08;;;;;;;10.95;87.92;101374.44;6182704;23;20520;-81
2022/11/02 02:34:31;;;;;;;9.68;1.73;;;;;;;10.84;87.96;101368.09;6211967;23;20000;-82
2022/11/02 02:37:02;;;;;;;7.35;1.17;;;;;;;10.87;88.70;101374.84;6210936;23;20472;-81
2022/11/02 02:39:42;;;;;;;7.75;1.13;;;;;;;10.77;89.06;101363.97;6211983;23;20048;-81
2022/11/02 02:42:17;;;;;;;9.52;1.05;;;;;;;10.79;88.66;101368.03;6209960;23;20008;-81
2022/11/02 02:44:51;;;;;;;7.37;1.00;;;;;;;10.72;89.05;101370.88;6210873;23;20011;-81
2022/11/02 02:47:22;;;;;;;8.07;1.20;;;;;;;10.63;89.40;101369.66;6210431;23;20244;-81
2022/11/02 02:49:52;;;;;;;10.90;1.35;;;;;;;10.64;90.06;101382.00;6210950;23;20012;-83
2022/11/02 02:52:19;;;;;;;6.55;1.20;;;;;;;10.56;90.29;101360.97;6211548;23;20004;-81
2022/11/02 02:54:47;;;;;;;9.10;1.20;;;;;;;10.57;90.35;101362.59;6211358;23;20055;-81
2022/11/02 02:57:17;;;;;;;12.32;1.42;;;;;;;10.63;90.63;101382.25;6210702;23;20028;-82
2022/11/02 02:59:44;;;;;;;9.07;1.60;;;;;;;10.59;90.80;101376.56;6210668;23;20009;-82
2022/11/02 03:02:21;;;;;;;13.48;1.70;;;;;;;10.50;90.70;101386.06;6210464;23;20011;-83
2022/11/02 03:04:47;;;;;;;11.93;1.63;;;;;;;10.49;90.73;101385.25;6211542;23;20007;-83
2022/11/02 03:07:19;;;;;;;11.77;1.40;;;;;;;10.43;90.53;101364.78;6210980;23;20004;-82
2022/11/02 03:10:13;;;;;;;7.15;1.05;;;;;;;10.45;90.78;101374.19;6210142;23;20420;-82
2022/11/02 03:12:46;;;;;;;6.28;0.93;;;;;;;10.50;91.00;101380.69;6211125;23;20001;-82
2022/11/02 03:15:36;;;;;;;14.27;1.48;;;;;;;10.51;90.02;101376.97;6208949;23;20013;-82
2022/11/02 03:18:07;;;;;;;12.37;1.87;;;;;;;10.58;89.63;101385.66;6210342;23;20348;-82
2022/11/02 03:20:47;;;;;;;12.03;1.37;;;;;;;10.49;89.65;101381.75;6210135;23;20263;-82
2022/11/02 03:23:32;;;;;;;11.90;1.75;;;;;;;10.40;89.81;101376.00;6210910;23;20009;-82
2022/11/02 03:26:15;;;;;;;7.55;1.05;;;;;;;10.47;90.16;101394.59;6210869;23;20424;-82
2022/11/02 03:29:02;;;;;;;15.75;1.90;;;;;;;10.43;89.78;101397.75;6210842;23;20000;-82
2022/11/02 03:31:36;;;;;;;8.32;1.27;;;;;;;10.49;89.98;101403.19;6210221;23;20004;-82
2022/11/02 03:34:25;;;;;;;13.35;1.70;;;;;;;10.57;89.00;101416.19;6210052;23;20278;-83
2022/11/02 03:36:59;;;;;;;11.43;1.48;;;;;;;10.65;88.27;101410.41;6210877;23;20008;-82
2022/11/02 03:39:35;;;;;;;8.07;1.35;;;;;;;10.62;88.59;101408.22;6211685;23;20039;-82
2022/11/02 03:42:03;;;;;;;10.60;1.70;;;;;;;10.63;88.14;101399.13;6211019;23;20058;-83
2022/11/02 03:44:32;;;;;;;13.53;1.77;;;;;;;10.67;88.28;101410.19;6213052;23;20390;-83
2022/11/02 03:46:59;;;;;;;9.63;1.30;;;;;;;10.65;88.21;101409.63;6212230;23;20243;-82
2022/11/02 03:49:27;;;;;;;9.38;1.45;;;;;;;10.59;88.34;101416.78;6213259;23;20335;-83
2022/11/02 03:51:55;;;;;;;10.90;1.40;;;;;;;10.60;88.42;101427.25;6212089;23;20433;-83
2022/11/02 03:54:42;;;;;;;13.27;1.60;;;;;;;10.59;88.81;101422.94;6212978;23;20371;-83
2022/11/02 03:57:17;;;;;;;13.32;1.65;;;;;;;10.59;88.74;101427.50;6211930;23;20032;-83
2022/11/02 03:59:43;;;;;;;10.88;1.65;;;;;;;10.51;88.58;101427.88;6212864;23;20005;-83
2022/11/02 04:02:10;;;;;;;13.73;1.67;;;;;;;10.51;89.05;101428.69;6212118;23;20023;-83
2022/11/02 04:04:46;;;;;;;9.98;1.63;;;;;;;10.45;89.42;101422.44;6212791;23;20004;-83
2022/11/02 04:07:12;;;;;;;16.00;1.55;;;;;;;10.43;89.87;101443.28;6212105;23;20081;-83
2022/11/02 04:09:37;;;;;;;15.50;1.57;;;;;;;10.36;90.91;101442.63;6212285;23;20448;-83
2022/11/02 04:14:47;;;;;;;14.38;1.55;;;;;;;10.50;91.02;101453.03;6212486;23;20103;-83
2022/11/02 04:19:56;;;;;;;12.30;1.55;;;;;;;10.39;91.01;101444.84;6211266;23;20760;-83
2022/11/02 04:25:19;;;;;;;15.80;1.43;;;;;;;10.29;92.15;101447.28;6212405;23;20019;-84
2022/11/02 04:27:46;;;;;;;14.00;1.70;;;;;;;10.37;91.99;101470.19;6212580;23;20301;-82
2022/11/02 04:30:14;;;;;;;9.80;1.17;;;;;;;10.47;91.42;101469.59;6211724;23;20016;-82
2022/11/02 04:35:30;;;;;;;12.57;1.63;;;;;;;10.51;90.52;101476.91;6210470;23;20027;-82
2022/11/02 04:40:39;;;;;;;15.52;1.45;;;;;;;10.39;91.41;101481.53;6210292;23;20051;-81
2022/11/02 04:43:05;;;;;;;13.90;1.77;;;;;;;10.40;91.44;101505.41;6210470;23;20499;-80
2022/11/02 04:45:31;;;;;;;13.50;1.83;;;;;;;10.41;91.56;101501.66;6211450;23;20099;-82
2022/11/02 04:48:00;;;;;;;14.13;1.58;;;;;;;10.39;91.69;101516.34;6211606;23;20437;-81
2022/11/02 04:50:26;;;;;;;11.40;1.50;;;;;;;10.41;91.27;101506.22;6212228;23;20008;-81
2022/11/02 04:52:59;;;;;;;15.67;1.80;;;;;;;10.36;91.51;101517.63;6210969;23;20663;-80
2022/11/02 04:55:26;;;;;;;17.35;1.50;;;;;;;10.38;91.61;101520.91;6212436;23;20016;-80
2022/11/02 04:57:51;;;;;;;17.20;2.13;;;;;;;10.40;91.30;101526.84;6211062;23;20051;-81
2022/11/02 05:00:18;;;;;;;15.45;1.70;;;;;;;10.49;90.87;101521.09;6209943;23;19996;-82
2022/11/02 05:02:46;;;;;;;18.90;2.07;;;;;;;10.51;90.87;101521.66;6211865;23;20004;-82
2022/11/02 05:05:11;;;;;;;9.27;1.53;;;;;;;10.49;90.72;101518.41;6212193;23;20691;-83
2022/11/02 05:07:37;;;;;;;8.18;1.30;;;;;;;10.49;91.07;101537.16;6211790;23;20011;-82
2022/11/02 05:10:02;;;;;;;8.73;1.37;;;;;;;10.50;90.77;101531.56;6209370;23;20000;-82
2022/11/02 05:12:28;;;;;;;14.87;2.10;;;;;;;10.53;90.94;101535.63;6210429;23;20004;-83
2022/11/02 05:14:53;;;;;;;13.63;1.70;;;;;;;10.53;90.27;101527.59;6211238;23;20004;-82
2022/11/02 05:17:18;;;;;;;16.10;1.47;;;;;;;10.73;89.42;101553.94;6211677;23;20001;-84
2022/11/02 05:19:43;;;;;;;16.53;1.83;;;;;;;10.78;89.17;101548.69;6210738;23;20352;-84
2022/11/02 05:22:09;;;;;;;16.40;1.40;;;;;;;10.74;89.10;101545.69;6212628;23;20068;-84
2022/11/02 05:24:34;;;;;;;13.40;1.47;;;;;;;10.81;88.56;101563.47;6216162;23;20015;-84
2022/11/02 05:26:59;;;;;;;12.77;1.90;;;;;;;10.69;88.57;101561.66;6213459;23;20028;-84
2022/11/02 05:29:25;;;;;;;10.53;1.73;;;;;;;10.60;89.01;101571.13;6215446;23;20093;-83
2022/11/02 05:31:51;;;;;;;10.98;1.70;;;;;;;10.44;89.42;101562.81;6212310;23;20008;-83
2022/11/02 05:34:16;;;;;;;8.23;1.40;;;;;;;10.43;89.75;101574.56;6211845;23;20020;-83
2022/11/02 05:36:41;;;;;;;17.00;1.67;;;;;;;10.44;89.53;101583.44;6212645;23;20328;-83
2022/11/02 05:39:07;;;;;;;8.32;1.40;;;;;;;10.44;89.42;101591.47;6210954;23;20428;-83
2022/11/02 05:41:33;;;;;;;13.70;1.87;;;;;;;10.39;89.08;101580.66;6210767;23;20005;-83
2022/11/02 05:43:58;;;;;;;9.70;1.40;;;;;;;10.40;89.40;101596.50;6211783;23;20035;-83
2022/11/02 05:46:23;;;;;;;12.13;2.10;;;;;;;10.39;89.37;101591.38;6211413;23;20321;-83
2022/11/02 05:48:48;;;;;;;13.53;1.97;;;;;;;10.49;89.21;101601.47;6211600;23;20011;-83
2022/11/02 05:51:14;;;;;;;11.33;1.30;;;;;;;10.45;88.92;101603.81;6211113;23;20036;-83
2022/11/02 05:53:39;;;;;;;10.73;1.47;;;;;;;10.45;88.71;101619.91;6210960;23;20328;-83
2022/11/02 05:56:06;;;;;;;10.87;1.30;;;;;;;10.31;89.61;101616.63;6212034;23;20009;-83
2022/11/02 05:58:32;;;;;;;13.07;1.63;;;;;;;10.20;89.72;101620.16;6210528;23;20375;-86
2022/11/02 06:01:02;;;;;;;14.00;1.80;;;;;;;10.04;90.66;101613.66;6210295;23;20016;-87
2022/11/02 06:03:28;;;;;;;11.05;1.65;;;;;;;10.04;91.10;101622.50;6211380;23;20039;-85
2022/11/02 06:06:05;;;;;;;14.83;1.77;;;;;;;9.96;91.52;101631.69;6211394;23;20005;-86
2022/11/02 06:08:35;;;;;;;11.50;1.60;;;;;;;9.87;91.60;101637.63;6211130;23;20239;-86
2022/11/02 06:11:19;;;;;;;14.43;1.90;;;;;;;9.71;92.51;101621.22;6210911;23;20001;-86
2022/11/02 06:13:49;;;;;;;15.88;1.80;;;;;;;9.70;93.05;101636.47;6211266;23;20024;-85
2022/11/02 06:16:14;;;;;;;16.80;1.70;;;;;;;9.68;93.15;101643.91;6209489;23;20008;-83
2022/11/02 06:18:40;;;;;;;14.52;1.58;;;;;;;9.57;93.56;101643.91;6210564;23;20074;-83
2022/11/02 06:21:05;;;;;;;8.97;1.40;;;;;;;9.50;94.37;101642.13;6211029;23;20005;-85
2022/11/02 06:23:31;;;;;;;13.73;1.47;;;;;;;9.47;94.30;101647.97;6211497;23;20476;-83
2022/11/02 06:25:58;;;;;;;10.73;1.27;;;;;;;9.46;94.96;101669.59;6183685;23;20008;-85
2022/11/02 06:28:23;;;;;;;13.35;1.20;;;;;;;9.34;95.22;101656.19;6182467;23;20012;-84
2022/11/02 06:30:49;;;;;;;6.30;1.27;;;;;;;9.34;95.96;101677.59;6210408;23;20004;-85
2022/11/02 06:33:15;;;;;;;8.60;1.50;;;;;;;9.29;96.17;101677.47;6211194;23;20053;-85
2022/11/02 06:35:45;;;;;;;13.07;2.07;;;;;;;9.23;96.31;101677.34;6211845;23;20322;-85
2022/11/02 06:38:10;;;;;;;9.65;1.58;;;;;;;9.32;96.87;101683.16;6210585;23;20043;-84
2022/11/02 06:40:36;;;;;;;13.30;1.67;;;;;;;9.34;96.50;101702.50;6210584;23;20079;-84
2022/11/02 06:43:01;;;;;;;13.00;1.57;;;;;;;9.32;96.77;101703.75;6210158;23;20444;-84
2022/11/02 06:45:26;;;;;;;16.57;1.77;;;;;;;9.28;97.03;101702.59;6209986;23;20047;-84
2022/11/02 06:47:51;;;;;;;17.07;1.40;;;;;;;9.23;97.03;101724.63;6210580;23;20009;-84
2022/11/02 06:50:17;;;;;;;10.23;1.30;;;;;;;9.26;96.75;101716.16;6210647;23;20001;-84
2022/11/02 06:52:46;;;;;;;13.67;1.80;;;;;;;9.18;96.91;101725.31;6211099;23;20364;-84
2022/11/02 06:55:14;;;;;;;15.15;1.80;;;;;;;9.26;96.83;101742.09;6211047;23;20033;-84
2022/11/02 06:57:40;;;;;;;19.40;1.60;;;;;;;9.21;97.52;101748.94;6209111;23;20478;-84
2022/11/02 07:00:11;;;;;;;14.73;1.40;;;;;;;9.26;97.25;101766.19;6210627;23;20042;-85
2022/11/02 07:02:36;;;;;;;12.15;1.70;;;;;;;9.24;97.09;101747.66;6210878;23;20013;-84
2022/11/02 07:05:01;;;;;;;17.30;1.90;;;;;;;9.28;96.88;101769.44;6210770;23;20004;-87
2022/11/02 07:07:27;;;;;;;16.23;1.60;;;;;;;9.32;96.65;101773.28;6210968;23;20045;-85
2022/11/02 07:09:55;;;;;;;18.15;1.73;;;;;;;9.35;96.78;101778.19;6210901;23;20009;-88
2022/11/02 07:12:22;;;;;;;12.63;1.77;;;;;;;9.33;96.23;101777.59;6211260;23;20008;-85
2022/11/02 07:14:47;;;;;;;9.73;1.20;;;;;;;9.24;96.36;101761.88;6210567;23;20627;-84
2022/11/02 07:17:12;;;;;;;13.48;1.42;;;;;;;9.44;95.84;101781.34;6209496;23;20028;-85
2022/11/02 07:19:38;;;;;;;17.83;1.67;;;;;;;9.43;95.99;101796.59;6211143;23;20047;-82
2022/11/02 07:22:04;;;;;;;16.80;1.60;;;;;;;9.46;96.16;101816.72;6211843;23;20001;-83
2022/11/02 07:24:29;;;;;;;15.77;1.33;;;;;;;9.45;96.56;101810.59;6212810;23;20004;-84
2022/11/02 07:26:54;;;;;;;10.90;1.87;;;;;;;9.54;96.37;101822.59;6212462;23;20001;-84
2022/11/02 07:29:20;;;;;;;12.03;1.40;;;;;;;9.60;96.17;101820.06;6212365;23;20035;-84
2022/11/02 07:31:45;;;;;;;12.70;1.37;;;;;;;9.60;95.51;101823.53;6212419;23;20491;-85
2022/11/02 07:34:11;;;;;;;12.27;1.45;;;;;;;9.57;95.60;101818.66;6212369;23;20313;-84
2022/11/02 07:36:37;;;;;;;14.97;1.57;;;;;;;9.53;96.17;101812.91;6212588;23;20023;-83
2022/11/02 07:39:04;;;;;;;10.27;1.40;;;;;;;9.68;95.63;101835.78;6212258;23;20260;-85
2022/11/02 07:41:29;;;;;;;10.43;1.50;;;;;;;9.67;95.64;101829.63;6211824;23;20024;-86
2022/11/02 07:43:55;;;;;;;15.73;1.53;;;;;;;9.73;96.14;101837.78;6211068;23;20005;-84
2022/11/02 07:46:20;;;;;;;11.70;1.23;;;;;;;9.72;95.65;101839.66;6211189;23;20005;-84
2022/11/02 07:48:47;;;;;;;13.30;1.50;;;;;;;9.72;95.38;101853.03;6210425;23;20023;-85
2022/11/02 07:51:12;;;;;;;10.77;1.23;;;;;;;9.69;95.89;101848.94;6211065;23;19996;-84
2022/11/02 07:53:39;;;;;;;15.65;1.80;;;;;;;9.80;95.70;101855.41;6207654;23;20015;-84
2022/11/02 07:56:05;;;;;;;12.67;1.40;;;;;;;9.82;95.42;101855.16;6203443;23;20005;-84
2022/11/02 07:58:31;;;;;;;10.40;1.63;;;;;;;9.85;95.80;101857.38;6204281;23;20359;-84
2022/11/02 08:00:58;;;;;;;10.27;1.40;;;;;;;9.90;95.53;101854.00;6207549;23;20005;-84
2022/11/02 08:03:24;;;;;;;10.85;1.20;;;;;;;9.93;95.50;101858.91;6184748;23;20012;-84
2022/11/02 08:05:50;;;;;;;9.75;1.40;;;;;;;9.90;95.35;101848.66;6212076;23;20013;-85
2022/11/02 08:08:17;;;;;;;12.63;1.10;;;;;;;9.88;95.31;101846.22;6210087;23;20009;-84
2022/11/02 08:10:44;;;;;;;12.50;1.87;;;;;;;9.94;95.27;101866.75;6211129;23;20246;-85
2022/11/02 08:13:12;;;;;;;15.43;1.73;;;;;;;9.96;95.49;101878.00;6232099;23;20013;-88
2022/11/02 08:15:38;;;;;;;18.15;1.90;;;;;;;9.94;95.36;101855.19;6233385;23;20008;-89
2022/11/02 08:18:12;;;;;;;10.20;1.43;;;;;;;9.97;95.59;101862.78;6235163;23;20029;-88
2022/11/02 08:20:38;;;;;;;15.80;1.63;;;;;;;10.04;95.62;101870.72;6222676;23;20239;-88
2022/11/02 08:23:04;;;;;;;14.82;1.30;;;;;;;10.04;95.96;101884.09;6224888;23;20004;-90
2022/11/02 08:25:30;;;;;;;14.38;1.50;;;;;;;10.03;95.43;101869.91;6217658;23;20001;-90
2022/11/02 08:28:00;;;;;;;10.85;1.92;;;;;;;10.14;95.30;101876.31;6213489;23;20005;-90
2022/11/02 08:30:29;;;;;;;11.40;1.53;;;;;;;10.21;94.87;101881.59;6212181;23;20005;-88
2022/11/02 08:33:00;;;;;;;20.73;2.10;;;;;;;10.25;94.53;101878.22;6214764;23;20302;-88
2022/11/02 08:35:26;;;;;;;8.65;1.25;;;;;;;10.35;94.10;101887.56;6214654;23;20008;-89
2022/11/02 08:37:55;;;;;;;16.93;2.07;;;;;;;10.20;93.22;101858.53;6211833;23;20016;-88
2022/11/02 08:40:20;;;;;;;13.77;1.70;;;;;;;10.39;93.29;101894.13;6212656;23;20004;-88
2022/11/02 08:42:45;;;;;;;14.90;1.45;;;;;;;10.42;93.03;101894.47;6213790;23;20004;-91
2022/11/02 08:45:10;;;;;;;8.47;1.47;;;;;;;10.43;93.18;101901.47;6212907;23;20020;-91
2022/11/02 08:47:42;;;;;;;12.43;1.67;;;;;;;10.40;93.59;101896.59;6211945;23;20424;-91
2022/11/02 08:50:09;;;;;;;17.10;1.80;;;;;;;10.45;92.44;101907.41;6212169;23;20004;-90
2022/11/02 08:52:38;;;;;;;15.33;1.90;;;;;;;10.45;92.36;101896.69;6213255;23;20039;-90
2022/11/02 08:55:04;;;;;;;11.80;1.90;;;;;;;10.48;91.51;101902.63;6212834;23;20267;-89
2022/11/02 08:57:29;;;;;;;7.88;1.30;;;;;;;10.50;91.21;101900.56;6211732;23;20091;-92
2022/11/02 08:59:54;;;;;;;15.00;1.92;;;;;;;10.45;90.82;101893.22;6211520;23;20511;-93
2022/11/02 09:02:20;;;;;;;13.30;1.47;;;;;;;10.53;90.85;101908.13;6211642;23;20009;-89
2022/11/02 09:04:46;;;;;;;14.63;1.87;;;;;;;10.67;90.28;101916.78;6212867;23;20015;-92
2022/11/02 09:07:12;;;;;;;12.25;1.83;;;;;;;10.67;90.12;101911.41;6213072;23;20070;-89
2022/11/02 09:09:37;;;;;;;12.47;1.60;;;;;;;10.74;90.36;101925.50;6213136;23;20012;-92
2022/11/02 09:12:03;;;;;;;12.83;1.60;;;;;;;10.73;90.46;101911.31;6212703;23;20032;-92
2022/11/02 09:14:28;;;;;;;10.75;1.85;;;;;;;10.75;90.56;101922.63;6212882;23;20000;-92
2022/11/02 09:16:53;;;;;;;23.83;2.67;;;;;;;10.72;91.25;101909.66;6213453;23;20000;-91
2022/11/02 09:19:18;;;;;;;13.53;1.40;;;;;;;10.80;89.38;101913.03;6219581;23;20016;-95
2022/11/02 09:21:46;;;;;;;8.48;1.38;;;;;;;10.86;89.61;101914.81;6215020;23;20332;-95
2022/11/02 09:24:12;;;;;;;10.30;1.33;;;;;;;10.91;89.78;101928.34;6220241;23;20016;-94
2022/11/02 09:26:37;;;;;;;12.80;1.50;;;;;;;11.01;88.08;101925.06;6223158;23;20004;-95
2022/11/02 09:29:02;;;;;;;14.10;1.50;;;;;;;11.01;88.70;101928.56;6220723;23;20005;-95
2022/11/02 09:31:29;;;;;;;14.20;1.67;;;;;;;11.03;88.87;101931.03;6220080;23;20001;-95
2022/11/02 09:33:54;;;;;;;11.45;1.65;;;;;;;11.01;88.96;101931.22;6221735;23;20020;-95
2022/11/02 09:36:20;;;;;;;15.80;2.60;;;;;;;11.10;88.49;101938.94;6219228;23;20047;-94
2022/11/02 09:38:45;;;;;;;15.03;1.83;;;;;;;11.12;88.20;101940.34;6218581;23;20055;-96
2022/11/02 09:41:32;;;;;;;13.83;1.73;;;;;;;11.11;88.41;101927.97;6217621;23;20015;-94
2022/11/02 09:44:33;;;;;;;11.57;1.85;;;;;;;11.13;89.00;101943.84;6220067;23;20004;-96
2022/11/02 09:46:58;;;;;;;14.18;1.60;;;;;;;11.10;88.05;101941.63;6200455;23;20005;-94
2022/11/02 09:49:27;;;;;;;14.17;1.93;;;;;;;11.25;89.04;101936.59;6219774;23;20013;-95
2022/11/02 09:51:56;;;;;;;12.80;1.70;;;;;;;11.71;88.03;101950.16;6221521;23;20000;-96
2022/11/02 09:54:43;;;;;;;11.20;1.75;;;;;;;12.08;84.53;101951.69;6222400;23;20020;-94
2022/11/02 09:57:14;;;;;;;15.85;1.90;;;;;;;12.20;83.85;101957.00;6197570;23;20005;-94
2022/11/02 09:59:41;;;;;;;11.63;1.98;;;;;;;12.21;83.10;101951.41;6223661;23;20004;-96
2022/11/02 10:02:38;;;;;;;16.27;2.33;;;;;;;12.26;83.65;101966.81;6232045;23;20019;-95
2022/11/02 10:05:35;;;;;;;16.08;1.80;;;;;;;12.28;82.69;101962.00;6125143;23;20074;-92
2022/11/02 10:08:20;;;;;;;15.88;1.92;;;;;;;12.29;82.73;101965.50;6206446;23;20008;-94
2022/11/02 10:10:53;;;;;;;12.38;1.70;;;;;;;12.26;82.42;101958.75;6226040;23;20005;-93
2022/11/02 10:13:33;;;;;;;15.50;1.87;;;;;;;12.34;81.90;101970.97;6225220;23;20028;-94
2022/11/02 10:16:12;;;;;;;13.77;1.90;;;;;;;12.44;80.91;101981.09;6226552;23;20236;-94
2022/11/02 10:18:39;;;;;;;15.40;1.80;;;;;;;12.38;79.73;101967.56;6220540;23;20008;-94
2022/11/02 10:21:14;;;;;;;12.88;2.08;;;;;;;12.44;79.48;101973.81;6214658;23;20039;-95
2022/11/02 10:23:52;;;;;;;13.45;1.80;;;;;;;12.61;80.22;101991.84;6214625;23;20001;-92
2022/11/02 10:26:30;;;;;;;13.00;1.75;;;;;;;12.71;79.02;101992.03;6214550;23;20000;-96
2022/11/02 10:29:05;;;;;;;17.90;1.65;;;;;;;12.75;78.45;101990.50;6219083;23;20019;-95
2022/11/02 10:31:34;;;;;;;22.52;2.20;;;;;;;12.84;75.48;101991.72;6214251;23;20015;-96
2022/11/02 10:34:25;;;;;;;14.23;1.75;;;;;;;12.91;74.33;101979.97;6219370;23;20011;-95
2022/11/02 10:37:18;;;;;;;15.55;2.05;;;;;;;12.83;75.10;101990.06;6217979;23;20052;-94
2022/11/02 10:40:18;;;;;;;13.13;1.63;;;;;;;12.79;74.59;101983.56;6217941;23;20107;-93
2022/11/02 10:43:09;;;;;;;18.10;1.97;;;;;;;12.79;75.39;101997.00;6217934;23;20323;-93
2022/11/02 10:46:04;;;;;;;14.18;1.67;;;;;;;12.79;75.68;101996.19;6201476;23;20021;-95
2022/11/02 10:48:40;;;;;;;12.52;1.60;;;;;;;12.72;74.25;101982.91;6219223;23;20008;-94
2022/11/02 10:51:11;;;;;;;10.98;1.33;;;;;;;12.81;71.85;101992.19;6225265;23;20009;-95
2022/11/02 10:53:44;;;;;;;12.35;1.60;;;;;;;12.86;72.66;101980.72;6221788;23;20012;-93
2022/11/02 10:56:15;;;;;;;8.60;1.38;;;;;;;13.02;72.81;101993.34;6227742;23;20001;-96
2022/11/02 10:58:52;;;;;;;11.95;1.75;;;;;;;13.13;72.85;101991.63;6224929;23;20016;-95
2022/11/02 11:01:18;;;;;;;10.95;1.88;;;;;;;13.28;71.43;102003.69;6233869;23;19989;-95
2022/11/02 11:04:03;;;;;;;19.10;1.93;;;;;;;13.29;71.05;102016.06;6242299;22;19988;-94
2022/11/02 11:06:28;;;;;;;11.07;1.60;;;;;;;13.35;69.06;102001.59;6240909;22;20035;-95
2022/11/02 11:09:14;;;;;;;20.30;2.17;;;;;;;13.39;68.35;102001.94;6238391;22;20009;-92
2022/11/02 11:11:39;;;;;;;13.20;1.38;;;;;;;13.41;68.72;102011.44;6224093;23;20008;-91
2022/11/02 11:14:20;;;;;;;7.73;1.30;;;;;;;13.40;69.46;101982.03;6216889;23;20221;-90
2022/11/02 11:16:47;;;;;;;16.25;1.70;;;;;;;13.65;69.02;102005.81;6211811;23;20005;-88
2022/11/02 11:19:28;;;;;;;13.77;1.48;;;;;;;13.65;68.29;101983.44;6211557;23;20096;-88
2022/11/02 11:21:54;;;;;;;10.07;1.58;;;;;;;13.75;66.11;102000.56;6211212;23;20039;-89
2022/11/02 11:24:28;;;;;;;10.87;1.77;;;;;;;13.80;65.86;102002.50;6213532;23;20004;-91
2022/11/02 11:27:02;;;;;;;11.10;1.40;;;;;;;13.81;66.95;102003.31;6212370;23;20008;-91
2022/11/02 11:29:33;;;;;;;13.80;1.75;;;;;;;13.84;66.72;102000.94;6213347;23;20016;-90
2022/11/02 11:32:01;;;;;;;13.52;1.83;;;;;;;13.93;66.03;102007.53;6213320;23;20001;-90
2022/11/02 11:34:30;;;;;;;12.27;1.77;;;;;;;14.06;65.63;102000.09;6212591;23;20079;-90
2022/11/02 11:37:08;;;;;;;11.80;1.50;;;;;;;14.19;65.82;101998.91;6211057;23;20246;-88
2022/11/02 11:39:36;;;;;;;15.88;1.85;;;;;;;14.16;64.22;101983.22;6211718;23;20028;-90
2022/11/02 11:42:04;;;;;;;12.07;1.63;;;;;;;14.19;63.29;101991.63;6211769;23;20016;-90
2022/11/02 11:44:30;;;;;;;14.77;1.60;;;;;;;14.15;63.16;101985.09;6212498;23;20441;-89
2022/11/02 11:46:59;;;;;;;10.67;1.50;;;;;;;14.08;63.69;101963.75;6212686;23;20131;-89